sensor_id;sensor_type;location;lat;lon;timestamp;P1;durP1;ratioP1;P2;durP2;ratioP2
78875;SDS011;68253;52.506;5.486;2023-06-22T00:00:53;11.07;;;4.38;;
78875;SDS011;68253;52.506;5.486;2023-06-22T00:03:20;10.15;;;4.45;;
78875;SDS011;68253;52.506;5.486;2023-06-22T00:05:47;10.13;;;4.20;;
78875;SDS011;68253;52.506;5.486;2023-06-22T00:08:14;11.20;;;4.03;;
78875;SDS011;68253;52.506;5.486;2023-06-22T00:10:40;11.85;;;4.22;;
78875;SDS011;68253;52.506;5.486;2023-06-22T00:13:08;10.93;;;4.13;;
78875;SDS011;68253;52.506;5.486;2023-06-22T00:15:35;11.10;;;4.68;;
78875;SDS011;68253;52.506;5.486;2023-06-22T00:18:01;10.88;;;4.80;;
78875;SDS011;68253;52.506;5.486;2023-06-22T00:20:28;11.68;;;4.90;;
78875;SDS011;68253;52.506;5.486;2023-06-22T00:22:55;10.45;;;4.45;;
78875;SDS011;68253;52.506;5.486;2023-06-22T00:25:22;12.38;;;5.65;;
78875;SDS011;68253;52.506;5.486;2023-06-22T00:27:49;11.80;;;5.43;;
78875;SDS011;68253;52.506;5.486;2023-06-22T00:30:16;11.32;;;5.47;;
78875;SDS011;68253;52.506;5.486;2023-06-22T00:32:43;12.23;;;5.72;;
78875;SDS011;68253;52.506;5.486;2023-06-22T00:35:10;11.82;;;5.20;;
78875;SDS011;68253;52.506;5.486;2023-06-22T00:37:37;13.90;;;5.80;;
78875;SDS011;68253;52.506;5.486;2023-06-22T00:40:10;13.40;;;6.15;;
78875;SDS011;68253;52.506;5.486;2023-06-22T00:42:37;14.20;;;6.07;;
78875;SDS011;68253;52.506;5.486;2023-06-22T00:45:05;12.27;;;5.53;;
78875;SDS011;68253;52.506;5.486;2023-06-22T00:47:31;12.35;;;6.03;;
78875;SDS011;68253;52.506;5.486;2023-06-22T00:49:59;12.00;;;5.60;;
78875;SDS011;68253;52.506;5.486;2023-06-22T00:52:25;12.35;;;5.43;;
78875;SDS011;68253;52.506;5.486;2023-06-22T00:54:55;13.05;;;5.88;;
78875;SDS011;68253;52.506;5.486;2023-06-22T00:57:23;12.15;;;5.75;;
78875;SDS011;68253;52.506;5.486;2023-06-22T00:59:54;12.57;;;6.03;;
78875;SDS011;68253;52.506;5.486;2023-06-22T01:02:21;12.68;;;6.40;;
78875;SDS011;68253;52.506;5.486;2023-06-22T01:04:47;12.65;;;6.65;;
78875;SDS011;68253;52.506;5.486;2023-06-22T01:09:54;13.27;;;6.60;;
78875;SDS011;68253;52.506;5.486;2023-06-22T01:12:22;14.05;;;7.00;;
78875;SDS011;68253;52.506;5.486;2023-06-22T01:14:58;12.82;;;6.63;;
78875;SDS011;68253;52.506;5.486;2023-06-22T01:17:33;14.98;;;6.47;;
78875;SDS011;68253;52.506;5.486;2023-06-22T01:20:01;15.32;;;6.97;;
78875;SDS011;68253;52.506;5.486;2023-06-22T01:22:32;14.63;;;7.57;;
78875;SDS011;68253;52.506;5.486;2023-06-22T01:25:12;14.80;;;7.22;;
78875;SDS011;68253;52.506;5.486;2023-06-22T01:30:41;14.57;;;6.40;;
78875;SDS011;68253;52.506;5.486;2023-06-22T01:33:12;14.32;;;6.95;;
78875;SDS011;68253;52.506;5.486;2023-06-22T01:35:39;14.40;;;7.50;;
78875;SDS011;68253;52.506;5.486;2023-06-22T01:38:05;14.55;;;7.20;;
78875;SDS011;68253;52.506;5.486;2023-06-22T01:40:33;14.20;;;7.57;;
78875;SDS011;68253;52.506;5.486;2023-06-22T01:43:01;15.32;;;7.57;;
78875;SDS011;68253;52.506;5.486;2023-06-22T01:45:28;14.18;;;7.43;;
78875;SDS011;68253;52.506;5.486;2023-06-22T01:47:56;13.65;;;7.50;;
78875;SDS011;68253;52.506;5.486;2023-06-22T01:50:24;14.85;;;7.55;;
78875;SDS011;68253;52.506;5.486;2023-06-22T01:52:50;13.82;;;7.13;;
78875;SDS011;68253;52.506;5.486;2023-06-22T01:55:16;14.23;;;7.10;;
78875;SDS011;68253;52.506;5.486;2023-06-22T01:57:42;15.20;;;7.68;;
78875;SDS011;68253;52.506;5.486;2023-06-22T02:00:13;14.35;;;7.57;;
78875;SDS011;68253;52.506;5.486;2023-06-22T02:02:52;15.63;;;8.10;;
78875;SDS011;68253;52.506;5.486;2023-06-22T02:05:19;14.90;;;8.00;;
78875;SDS011;68253;52.506;5.486;2023-06-22T02:08:03;16.63;;;7.93;;
78875;SDS011;68253;52.506;5.486;2023-06-22T02:10:34;16.45;;;8.23;;
78875;SDS011;68253;52.506;5.486;2023-06-22T02:13:04;16.98;;;7.95;;
78875;SDS011;68253;52.506;5.486;2023-06-22T02:15:32;15.68;;;7.82;;
78875;SDS011;68253;52.506;5.486;2023-06-22T02:17:59;14.48;;;7.47;;
78875;SDS011;68253;52.506;5.486;2023-06-22T02:20:26;16.42;;;8.60;;
78875;SDS011;68253;52.506;5.486;2023-06-22T02:22:52;14.82;;;7.75;;
78875;SDS011;68253;52.506;5.486;2023-06-22T02:25:18;15.77;;;7.30;;
78875;SDS011;68253;52.506;5.486;2023-06-22T02:27:45;14.55;;;7.78;;
78875;SDS011;68253;52.506;5.486;2023-06-22T02:30:11;14.75;;;7.75;;
78875;SDS011;68253;52.506;5.486;2023-06-22T02:32:38;15.20;;;7.90;;
78875;SDS011;68253;52.506;5.486;2023-06-22T02:35:08;14.88;;;8.10;;
78875;SDS011;68253;52.506;5.486;2023-06-22T02:37:35;16.30;;;8.15;;
78875;SDS011;68253;52.506;5.486;2023-06-22T02:40:07;16.58;;;8.43;;
78875;SDS011;68253;52.506;5.486;2023-06-22T02:42:37;16.08;;;8.15;;
78875;SDS011;68253;52.506;5.486;2023-06-22T02:45:05;17.13;;;7.97;;
78875;SDS011;68253;52.506;5.486;2023-06-22T02:47:31;14.80;;;7.78;;
78875;SDS011;68253;52.506;5.486;2023-06-22T02:49:58;16.63;;;8.27;;
78875;SDS011;68253;52.506;5.486;2023-06-22T02:52:24;15.98;;;8.77;;
78875;SDS011;68253;52.506;5.486;2023-06-22T02:54:51;17.10;;;8.45;;
78875;SDS011;68253;52.506;5.486;2023-06-22T02:57:17;16.67;;;9.10;;
78875;SDS011;68253;52.506;5.486;2023-06-22T02:59:43;15.98;;;8.13;;
78875;SDS011;68253;52.506;5.486;2023-06-22T03:02:11;15.70;;;8.07;;
78875;SDS011;68253;52.506;5.486;2023-06-22T03:04:38;17.10;;;8.45;;
78875;SDS011;68253;52.506;5.486;2023-06-22T03:07:04;17.75;;;9.02;;
78875;SDS011;68253;52.506;5.486;2023-06-22T03:09:31;15.50;;;8.05;;
78875;SDS011;68253;52.506;5.486;2023-06-22T03:11:58;16.08;;;8.50;;
78875;SDS011;68253;52.506;5.486;2023-06-22T03:14:30;15.30;;;7.90;;
78875;SDS011;68253;52.506;5.486;2023-06-22T03:16:56;16.25;;;8.73;;
78875;SDS011;68253;52.506;5.486;2023-06-22T03:19:27;16.33;;;8.77;;
78875;SDS011;68253;52.506;5.486;2023-06-22T03:21:55;16.15;;;9.20;;
78875;SDS011;68253;52.506;5.486;2023-06-22T03:24:21;15.88;;;8.73;;
78875;SDS011;68253;52.506;5.486;2023-06-22T03:26:47;15.15;;;8.52;;
78875;SDS011;68253;52.506;5.486;2023-06-22T03:29:14;16.60;;;9.00;;
78875;SDS011;68253;52.506;5.486;2023-06-22T03:31:42;15.63;;;8.25;;
78875;SDS011;68253;52.506;5.486;2023-06-22T03:34:08;16.23;;;8.93;;
78875;SDS011;68253;52.506;5.486;2023-06-22T03:36:34;15.50;;;8.43;;
78875;SDS011;68253;52.506;5.486;2023-06-22T03:39:01;16.08;;;8.25;;
78875;SDS011;68253;52.506;5.486;2023-06-22T03:41:28;18.92;;;8.80;;
78875;SDS011;68253;52.506;5.486;2023-06-22T03:43:54;16.27;;;8.55;;
78875;SDS011;68253;52.506;5.486;2023-06-22T03:46:20;14.13;;;7.85;;
78875;SDS011;68253;52.506;5.486;2023-06-22T03:48:46;15.68;;;8.75;;
78875;SDS011;68253;52.506;5.486;2023-06-22T03:51:13;16.48;;;8.50;;
78875;SDS011;68253;52.506;5.486;2023-06-22T03:53:39;15.60;;;8.95;;
78875;SDS011;68253;52.506;5.486;2023-06-22T03:56:05;16.38;;;9.13;;
78875;SDS011;68253;52.506;5.486;2023-06-22T03:58:31;18.17;;;9.27;;
78875;SDS011;68253;52.506;5.486;2023-06-22T04:00:58;16.17;;;8.43;;
78875;SDS011;68253;52.506;5.486;2023-06-22T04:03:25;16.63;;;9.68;;
78875;SDS011;68253;52.506;5.486;2023-06-22T04:05:51;16.13;;;8.80;;
78875;SDS011;68253;52.506;5.486;2023-06-22T04:08:18;17.77;;;8.90;;
78875;SDS011;68253;52.506;5.486;2023-06-22T04:10:44;17.00;;;9.25;;
78875;SDS011;68253;52.506;5.486;2023-06-22T04:13:10;18.02;;;9.77;;
78875;SDS011;68253;52.506;5.486;2023-06-22T04:15:36;16.70;;;9.13;;
78875;SDS011;68253;52.506;5.486;2023-06-22T04:18:02;16.92;;;8.88;;
78875;SDS011;68253;52.506;5.486;2023-06-22T04:20:29;16.50;;;9.38;;
78875;SDS011;68253;52.506;5.486;2023-06-22T04:22:56;17.33;;;9.73;;
78875;SDS011;68253;52.506;5.486;2023-06-22T04:25:23;16.92;;;9.32;;
78875;SDS011;68253;52.506;5.486;2023-06-22T04:27:49;16.10;;;9.18;;
78875;SDS011;68253;52.506;5.486;2023-06-22T04:30:16;17.58;;;9.13;;
78875;SDS011;68253;52.506;5.486;2023-06-22T04:32:42;16.15;;;8.85;;
78875;SDS011;68253;52.506;5.486;2023-06-22T04:35:09;18.55;;;10.10;;
78875;SDS011;68253;52.506;5.486;2023-06-22T04:37:36;16.00;;;9.13;;
78875;SDS011;68253;52.506;5.486;2023-06-22T04:40:03;17.13;;;9.73;;
78875;SDS011;68253;52.506;5.486;2023-06-22T04:42:33;18.90;;;9.75;;
78875;SDS011;68253;52.506;5.486;2023-06-22T04:45:00;17.20;;;9.82;;
78875;SDS011;68253;52.506;5.486;2023-06-22T04:47:26;18.77;;;10.48;;
78875;SDS011;68253;52.506;5.486;2023-06-22T04:49:52;18.45;;;10.32;;
78875;SDS011;68253;52.506;5.486;2023-06-22T04:52:18;18.77;;;10.55;;
78875;SDS011;68253;52.506;5.486;2023-06-22T04:54:45;18.65;;;10.23;;
78875;SDS011;68253;52.506;5.486;2023-06-22T04:57:16;18.95;;;11.05;;
78875;SDS011;68253;52.506;5.486;2023-06-22T04:59:42;19.33;;;11.02;;
78875;SDS011;68253;52.506;5.486;2023-06-22T05:02:08;17.95;;;10.63;;
78875;SDS011;68253;52.506;5.486;2023-06-22T05:04:35;20.35;;;12.15;;
78875;SDS011;68253;52.506;5.486;2023-06-22T05:07:04;20.63;;;12.45;;
78875;SDS011;68253;52.506;5.486;2023-06-22T05:09:30;24.35;;;15.43;;
78875;SDS011;68253;52.506;5.486;2023-06-22T05:11:59;17.33;;;10.02;;
78875;SDS011;68253;52.506;5.486;2023-06-22T05:14:28;22.70;;;14.30;;
78875;SDS011;68253;52.506;5.486;2023-06-22T05:16:55;16.98;;;10.32;;
78875;SDS011;68253;52.506;5.486;2023-06-22T05:19:24;18.08;;;11.25;;
78875;SDS011;68253;52.506;5.486;2023-06-22T05:21:57;19.15;;;11.48;;
78875;SDS011;68253;52.506;5.486;2023-06-22T05:24:23;19.83;;;11.70;;
78875;SDS011;68253;52.506;5.486;2023-06-22T05:26:49;21.67;;;13.07;;
78875;SDS011;68253;52.506;5.486;2023-06-22T05:29:15;21.35;;;11.63;;
78875;SDS011;68253;52.506;5.486;2023-06-22T05:31:41;18.40;;;11.15;;
78875;SDS011;68253;52.506;5.486;2023-06-22T05:34:07;20.38;;;12.88;;
78875;SDS011;68253;52.506;5.486;2023-06-22T05:36:33;17.45;;;10.55;;
78875;SDS011;68253;52.506;5.486;2023-06-22T05:39:00;19.63;;;11.75;;
78875;SDS011;68253;52.506;5.486;2023-06-22T05:41:39;22.60;;;12.38;;
78875;SDS011;68253;52.506;5.486;2023-06-22T05:44:08;17.48;;;10.10;;
78875;SDS011;68253;52.506;5.486;2023-06-22T05:46:34;23.85;;;14.15;;
78875;SDS011;68253;52.506;5.486;2023-06-22T05:49:00;18.58;;;10.63;;
78875;SDS011;68253;52.506;5.486;2023-06-22T05:51:29;17.45;;;10.77;;
78875;SDS011;68253;52.506;5.486;2023-06-22T05:56:21;17.58;;;10.52;;
78875;SDS011;68253;52.506;5.486;2023-06-22T05:58:48;19.10;;;11.55;;
78875;SDS011;68253;52.506;5.486;2023-06-22T06:01:14;17.98;;;10.07;;
78875;SDS011;68253;52.506;5.486;2023-06-22T06:03:41;18.48;;;10.95;;
78875;SDS011;68253;52.506;5.486;2023-06-22T06:06:07;21.50;;;11.18;;
78875;SDS011;68253;52.506;5.486;2023-06-22T06:08:33;21.02;;;11.70;;
78875;SDS011;68253;52.506;5.486;2023-06-22T06:11:00;19.48;;;11.80;;
78875;SDS011;68253;52.506;5.486;2023-06-22T06:13:26;21.98;;;12.90;;
78875;SDS011;68253;52.506;5.486;2023-06-22T06:15:52;20.90;;;12.82;;
78875;SDS011;68253;52.506;5.486;2023-06-22T06:18:20;16.02;;;10.20;;
78875;SDS011;68253;52.506;5.486;2023-06-22T06:20:46;22.52;;;14.43;;
78875;SDS011;68253;52.506;5.486;2023-06-22T06:23:13;16.63;;;10.10;;
78875;SDS011;68253;52.506;5.486;2023-06-22T06:25:39;17.17;;;10.10;;
78875;SDS011;68253;52.506;5.486;2023-06-22T06:28:05;16.90;;;9.40;;
78875;SDS011;68253;52.506;5.486;2023-06-22T06:30:31;17.67;;;10.85;;
78875;SDS011;68253;52.506;5.486;2023-06-22T06:32:57;18.70;;;10.48;;
78875;SDS011;68253;52.506;5.486;2023-06-22T06:35:23;18.65;;;11.15;;
78875;SDS011;68253;52.506;5.486;2023-06-22T06:37:50;15.80;;;9.35;;
78875;SDS011;68253;52.506;5.486;2023-06-22T06:40:17;18.83;;;12.13;;
78875;SDS011;68253;52.506;5.486;2023-06-22T06:42:44;17.10;;;9.88;;
78875;SDS011;68253;52.506;5.486;2023-06-22T06:45:12;16.88;;;9.93;;
78875;SDS011;68253;52.506;5.486;2023-06-22T06:47:43;17.17;;;9.98;;
78875;SDS011;68253;52.506;5.486;2023-06-22T06:50:10;16.65;;;9.25;;
78875;SDS011;68253;52.506;5.486;2023-06-22T06:52:36;17.48;;;10.20;;
78875;SDS011;68253;52.506;5.486;2023-06-22T06:55:02;17.33;;;9.82;;
78875;SDS011;68253;52.506;5.486;2023-06-22T06:57:40;17.80;;;10.07;;
78875;SDS011;68253;52.506;5.486;2023-06-22T07:00:07;18.13;;;10.98;;
78875;SDS011;68253;52.506;5.486;2023-06-22T07:02:40;15.07;;;8.30;;
78875;SDS011;68253;52.506;5.486;2023-06-22T07:05:09;19.95;;;12.07;;
78875;SDS011;68253;52.506;5.486;2023-06-22T07:07:36;19.00;;;9.88;;
78875;SDS011;68253;52.506;5.486;2023-06-22T07:10:04;16.90;;;8.93;;
78875;SDS011;68253;52.506;5.486;2023-06-22T07:12:31;20.67;;;11.77;;
78875;SDS011;68253;52.506;5.486;2023-06-22T07:15:01;18.48;;;12.00;;
78875;SDS011;68253;52.506;5.486;2023-06-22T07:17:29;18.63;;;10.55;;
78875;SDS011;68253;52.506;5.486;2023-06-22T07:19:55;16.05;;;8.98;;
78875;SDS011;68253;52.506;5.486;2023-06-22T07:22:21;19.98;;;11.73;;
78875;SDS011;68253;52.506;5.486;2023-06-22T07:24:47;18.25;;;10.18;;
78875;SDS011;68253;52.506;5.486;2023-06-22T07:27:14;18.55;;;10.95;;
78875;SDS011;68253;52.506;5.486;2023-06-22T07:29:44;17.33;;;9.60;;
78875;SDS011;68253;52.506;5.486;2023-06-22T07:32:11;22.73;;;13.60;;
78875;SDS011;68253;52.506;5.486;2023-06-22T07:34:37;19.63;;;11.45;;
78875;SDS011;68253;52.506;5.486;2023-06-22T07:37:04;15.55;;;8.63;;
78875;SDS011;68253;52.506;5.486;2023-06-22T07:39:30;17.63;;;9.15;;
78875;SDS011;68253;52.506;5.486;2023-06-22T07:41:56;22.17;;;13.57;;
78875;SDS011;68253;52.506;5.486;2023-06-22T07:44:22;16.35;;;9.38;;
78875;SDS011;68253;52.506;5.486;2023-06-22T07:46:49;18.75;;;10.55;;
78875;SDS011;68253;52.506;5.486;2023-06-22T07:49:16;13.93;;;7.30;;
78875;SDS011;68253;52.506;5.486;2023-06-22T07:51:43;15.77;;;8.82;;
78875;SDS011;68253;52.506;5.486;2023-06-22T07:54:09;17.30;;;9.43;;
78875;SDS011;68253;52.506;5.486;2023-06-22T07:56:36;14.98;;;8.40;;
78875;SDS011;68253;52.506;5.486;2023-06-22T07:59:02;17.30;;;9.98;;
78875;SDS011;68253;52.506;5.486;2023-06-22T08:01:29;15.68;;;8.85;;
78875;SDS011;68253;52.506;5.486;2023-06-22T08:03:55;17.40;;;10.55;;
78875;SDS011;68253;52.506;5.486;2023-06-22T08:06:21;14.55;;;8.63;;
78875;SDS011;68253;52.506;5.486;2023-06-22T08:08:47;13.70;;;6.80;;
78875;SDS011;68253;52.506;5.486;2023-06-22T08:11:14;14.20;;;8.07;;
78875;SDS011;68253;52.506;5.486;2023-06-22T08:13:40;13.65;;;6.57;;
78875;SDS011;68253;52.506;5.486;2023-06-22T08:16:06;14.63;;;8.20;;
78875;SDS011;68253;52.506;5.486;2023-06-22T08:18:33;15.90;;;9.00;;
78875;SDS011;68253;52.506;5.486;2023-06-22T08:20:59;14.50;;;7.88;;
78875;SDS011;68253;52.506;5.486;2023-06-22T08:23:25;15.23;;;7.72;;
78875;SDS011;68253;52.506;5.486;2023-06-22T08:25:51;16.17;;;8.32;;
78875;SDS011;68253;52.506;5.486;2023-06-22T08:28:18;13.57;;;7.95;;
78875;SDS011;68253;52.506;5.486;2023-06-22T08:30:44;12.02;;;6.47;;
78875;SDS011;68253;52.506;5.486;2023-06-22T08:33:10;13.23;;;6.53;;
78875;SDS011;68253;52.506;5.486;2023-06-22T08:35:36;12.50;;;6.38;;
78875;SDS011;68253;52.506;5.486;2023-06-22T08:38:02;11.68;;;6.05;;
78875;SDS011;68253;52.506;5.486;2023-06-22T08:40:29;13.98;;;6.80;;
78875;SDS011;68253;52.506;5.486;2023-06-22T08:42:55;13.35;;;7.40;;
78875;SDS011;68253;52.506;5.486;2023-06-22T08:45:21;13.70;;;7.03;;
78875;SDS011;68253;52.506;5.486;2023-06-22T08:47:47;12.40;;;5.70;;
78875;SDS011;68253;52.506;5.486;2023-06-22T08:50:13;12.50;;;5.97;;
78875;SDS011;68253;52.506;5.486;2023-06-22T08:52:39;13.27;;;6.85;;
78875;SDS011;68253;52.506;5.486;2023-06-22T08:55:09;10.27;;;5.18;;
78875;SDS011;68253;52.506;5.486;2023-06-22T08:57:36;14.35;;;7.35;;
78875;SDS011;68253;52.506;5.486;2023-06-22T09:00:05;10.95;;;5.70;;
78875;SDS011;68253;52.506;5.486;2023-06-22T09:02:45;11.05;;;5.35;;
78875;SDS011;68253;52.506;5.486;2023-06-22T09:05:12;12.82;;;6.00;;
78875;SDS011;68253;52.506;5.486;2023-06-22T09:07:39;10.98;;;5.60;;
78875;SDS011;68253;52.506;5.486;2023-06-22T09:10:06;11.68;;;5.82;;
78875;SDS011;68253;52.506;5.486;2023-06-22T09:12:32;11.90;;;5.60;;
78875;SDS011;68253;52.506;5.486;2023-06-22T09:14:59;12.60;;;6.18;;
78875;SDS011;68253;52.506;5.486;2023-06-22T09:17:26;12.38;;;7.15;;
78875;SDS011;68253;52.506;5.486;2023-06-22T09:19:52;13.02;;;7.50;;
78875;SDS011;68253;52.506;5.486;2023-06-22T09:22:19;11.20;;;5.47;;
78875;SDS011;68253;52.506;5.486;2023-06-22T09:24:45;12.95;;;5.82;;
78875;SDS011;68253;52.506;5.486;2023-06-22T09:27:11;11.50;;;6.22;;
78875;SDS011;68253;52.506;5.486;2023-06-22T09:29:37;10.98;;;5.38;;
78875;SDS011;68253;52.506;5.486;2023-06-22T09:32:03;11.85;;;5.53;;
78875;SDS011;68253;52.506;5.486;2023-06-22T09:34:30;10.73;;;5.70;;
78875;SDS011;68253;52.506;5.486;2023-06-22T09:36:57;11.70;;;5.60;;
78875;SDS011;68253;52.506;5.486;2023-06-22T09:39:26;12.38;;;5.60;;
78875;SDS011;68253;52.506;5.486;2023-06-22T09:41:52;11.68;;;5.68;;
78875;SDS011;68253;52.506;5.486;2023-06-22T09:44:18;11.10;;;4.97;;
78875;SDS011;68253;52.506;5.486;2023-06-22T09:46:44;10.93;;;5.57;;
78875;SDS011;68253;52.506;5.486;2023-06-22T09:49:10;12.68;;;5.22;;
78875;SDS011;68253;52.506;5.486;2023-06-22T09:51:36;14.32;;;6.57;;
78875;SDS011;68253;52.506;5.486;2023-06-22T09:54:03;14.48;;;6.60;;
78875;SDS011;68253;52.506;5.486;2023-06-22T09:56:29;9.55;;;4.20;;
78875;SDS011;68253;52.506;5.486;2023-06-22T09:58:56;9.80;;;4.55;;
78875;SDS011;68253;52.506;5.486;2023-06-22T10:01:22;10.57;;;5.38;;
78875;SDS011;68253;52.506;5.486;2023-06-22T10:03:49;9.32;;;4.07;;
78875;SDS011;68253;52.506;5.486;2023-06-22T10:06:15;10.25;;;4.70;;
78875;SDS011;68253;52.506;5.486;2023-06-22T10:08:41;8.77;;;3.88;;
78875;SDS011;68253;52.506;5.486;2023-06-22T10:11:07;11.20;;;4.60;;
78875;SDS011;68253;52.506;5.486;2023-06-22T10:13:33;10.90;;;5.05;;
78875;SDS011;68253;52.506;5.486;2023-06-22T10:15:59;10.43;;;3.92;;
78875;SDS011;68253;52.506;5.486;2023-06-22T10:18:26;8.68;;;3.72;;
78875;SDS011;68253;52.506;5.486;2023-06-22T10:20:52;9.52;;;4.32;;
78875;SDS011;68253;52.506;5.486;2023-06-22T10:23:21;10.15;;;3.75;;
78875;SDS011;68253;52.506;5.486;2023-06-22T10:25:48;9.05;;;3.80;;
78875;SDS011;68253;52.506;5.486;2023-06-22T10:28:14;8.73;;;3.53;;
78875;SDS011;68253;52.506;5.486;2023-06-22T10:30:40;9.27;;;3.75;;
78875;SDS011;68253;52.506;5.486;2023-06-22T10:33:10;8.77;;;3.70;;
78875;SDS011;68253;52.506;5.486;2023-06-22T10:35:38;8.35;;;3.05;;
78875;SDS011;68253;52.506;5.486;2023-06-22T10:38:04;7.68;;;2.88;;
78875;SDS011;68253;52.506;5.486;2023-06-22T10:40:31;7.57;;;2.97;;
78875;SDS011;68253;52.506;5.486;2023-06-22T10:42:57;8.00;;;2.90;;
78875;SDS011;68253;52.506;5.486;2023-06-22T10:45:24;8.73;;;2.70;;
78875;SDS011;68253;52.506;5.486;2023-06-22T10:47:50;9.60;;;4.00;;
78875;SDS011;68253;52.506;5.486;2023-06-22T10:50:16;7.97;;;3.00;;
78875;SDS011;68253;52.506;5.486;2023-06-22T10:52:43;8.45;;;3.40;;
78875;SDS011;68253;52.506;5.486;2023-06-22T10:55:09;7.60;;;2.83;;
78875;SDS011;68253;52.506;5.486;2023-06-22T10:57:35;9.13;;;3.15;;
78875;SDS011;68253;52.506;5.486;2023-06-22T11:00:02;8.60;;;3.28;;
78875;SDS011;68253;52.506;5.486;2023-06-22T11:02:31;8.73;;;2.80;;
78875;SDS011;68253;52.506;5.486;2023-06-22T11:04:57;8.00;;;3.30;;
78875;SDS011;68253;52.506;5.486;2023-06-22T11:07:26;8.68;;;3.40;;
78875;SDS011;68253;52.506;5.486;2023-06-22T11:09:54;9.05;;;3.65;;
78875;SDS011;68253;52.506;5.486;2023-06-22T11:12:20;9.50;;;3.63;;
78875;SDS011;68253;52.506;5.486;2023-06-22T11:14:47;8.50;;;3.30;;
78875;SDS011;68253;52.506;5.486;2023-06-22T11:17:13;7.90;;;3.20;;
78875;SDS011;68253;52.506;5.486;2023-06-22T11:19:39;7.35;;;3.20;;
78875;SDS011;68253;52.506;5.486;2023-06-22T11:22:05;8.20;;;3.65;;
78875;SDS011;68253;52.506;5.486;2023-06-22T11:24:31;8.32;;;3.40;;
78875;SDS011;68253;52.506;5.486;2023-06-22T11:26:58;9.57;;;3.58;;
78875;SDS011;68253;52.506;5.486;2023-06-22T11:29:24;9.75;;;3.78;;
78875;SDS011;68253;52.506;5.486;2023-06-22T11:31:50;9.15;;;3.08;;
78875;SDS011;68253;52.506;5.486;2023-06-22T11:34:16;8.07;;;2.67;;
78875;SDS011;68253;52.506;5.486;2023-06-22T11:36:42;7.82;;;3.00;;
78875;SDS011;68253;52.506;5.486;2023-06-22T11:39:09;8.25;;;2.95;;
78875;SDS011;68253;52.506;5.486;2023-06-22T11:41:36;7.75;;;3.25;;
78875;SDS011;68253;52.506;5.486;2023-06-22T11:44:02;6.97;;;2.63;;
78875;SDS011;68253;52.506;5.486;2023-06-22T11:46:30;8.50;;;2.80;;
78875;SDS011;68253;52.506;5.486;2023-06-22T11:48:57;12.77;;;4.97;;
78875;SDS011;68253;52.506;5.486;2023-06-22T11:51:23;10.15;;;3.38;;
78875;SDS011;68253;52.506;5.486;2023-06-22T11:53:49;9.25;;;3.22;;
78875;SDS011;68253;52.506;5.486;2023-06-22T11:56:15;9.10;;;2.80;;
78875;SDS011;68253;52.506;5.486;2023-06-22T11:58:42;8.70;;;3.30;;
78875;SDS011;68253;52.506;5.486;2023-06-22T12:01:08;8.80;;;3.40;;
78875;SDS011;68253;52.506;5.486;2023-06-22T12:03:34;8.40;;;2.85;;
78875;SDS011;68253;52.506;5.486;2023-06-22T12:06:00;7.50;;;2.80;;
78875;SDS011;68253;52.506;5.486;2023-06-22T12:08:26;8.00;;;3.10;;
78875;SDS011;68253;52.506;5.486;2023-06-22T12:10:52;8.00;;;3.40;;
78875;SDS011;68253;52.506;5.486;2023-06-22T12:13:19;7.43;;;2.70;;
78875;SDS011;68253;52.506;5.486;2023-06-22T12:15:45;9.30;;;3.38;;
78875;SDS011;68253;52.506;5.486;2023-06-22T12:18:11;8.95;;;3.25;;
78875;SDS011;68253;52.506;5.486;2023-06-22T12:20:40;10.10;;;3.20;;
78875;SDS011;68253;52.506;5.486;2023-06-22T12:23:06;8.75;;;3.17;;
78875;SDS011;68253;52.506;5.486;2023-06-22T12:25:32;8.65;;;3.35;;
78875;SDS011;68253;52.506;5.486;2023-06-22T12:27:58;8.07;;;3.63;;
78875;SDS011;68253;52.506;5.486;2023-06-22T12:30:25;8.35;;;2.90;;
78875;SDS011;68253;52.506;5.486;2023-06-22T12:32:51;7.55;;;2.92;;
78875;SDS011;68253;52.506;5.486;2023-06-22T12:35:17;9.05;;;2.97;;
78875;SDS011;68253;52.506;5.486;2023-06-22T12:37:44;8.35;;;3.40;;
78875;SDS011;68253;52.506;5.486;2023-06-22T12:40:10;8.57;;;3.17;;
78875;SDS011;68253;52.506;5.486;2023-06-22T12:42:36;8.45;;;3.35;;
78875;SDS011;68253;52.506;5.486;2023-06-22T12:45:02;7.88;;;3.13;;
78875;SDS011;68253;52.506;5.486;2023-06-22T12:47:29;8.40;;;3.20;;
78875;SDS011;68253;52.506;5.486;2023-06-22T12:49:55;8.40;;;3.30;;
78875;SDS011;68253;52.506;5.486;2023-06-22T12:52:21;8.15;;;3.47;;
78875;SDS011;68253;52.506;5.486;2023-06-22T12:54:48;8.55;;;3.60;;
78875;SDS011;68253;52.506;5.486;2023-06-22T12:57:14;9.27;;;3.38;;
78875;SDS011;68253;52.506;5.486;2023-06-22T12:59:40;9.40;;;3.17;;
78875;SDS011;68253;52.506;5.486;2023-06-22T13:02:06;9.73;;;3.65;;
78875;SDS011;68253;52.506;5.486;2023-06-22T13:04:32;8.15;;;3.17;;
78875;SDS011;68253;52.506;5.486;2023-06-22T13:06:58;8.40;;;3.10;;
78875;SDS011;68253;52.506;5.486;2023-06-22T13:09:25;7.80;;;3.05;;
78875;SDS011;68253;52.506;5.486;2023-06-22T13:11:51;7.57;;;2.92;;
78875;SDS011;68253;52.506;5.486;2023-06-22T13:14:18;9.18;;;3.42;;
78875;SDS011;68253;52.506;5.486;2023-06-22T13:16:44;9.38;;;3.63;;
78875;SDS011;68253;52.506;5.486;2023-06-22T13:19:10;9.23;;;3.72;;
78875;SDS011;68253;52.506;5.486;2023-06-22T13:21:36;10.30;;;3.85;;
78875;SDS011;68253;52.506;5.486;2023-06-22T13:24:02;10.85;;;4.03;;
78875;SDS011;68253;52.506;5.486;2023-06-22T13:26:31;11.75;;;4.60;;
78875;SDS011;68253;52.506;5.486;2023-06-22T13:28:58;9.70;;;4.22;;
78875;SDS011;68253;52.506;5.486;2023-06-22T13:31:24;11.27;;;4.43;;
78875;SDS011;68253;52.506;5.486;2023-06-22T13:33:50;10.02;;;3.83;;
78875;SDS011;68253;52.506;5.486;2023-06-22T13:36:18;11.40;;;4.30;;
78875;SDS011;68253;52.506;5.486;2023-06-22T13:38:45;10.50;;;4.10;;
78875;SDS011;68253;52.506;5.486;2023-06-22T13:41:11;10.55;;;3.92;;
78875;SDS011;68253;52.506;5.486;2023-06-22T13:43:37;10.05;;;4.20;;
78875;SDS011;68253;52.506;5.486;2023-06-22T13:46:03;8.88;;;3.58;;
78875;SDS011;68253;52.506;5.486;2023-06-22T13:48:29;9.82;;;3.60;;
78875;SDS011;68253;52.506;5.486;2023-06-22T13:50:56;8.80;;;3.58;;
78875;SDS011;68253;52.506;5.486;2023-06-22T13:53:24;10.98;;;3.80;;
78875;SDS011;68253;52.506;5.486;2023-06-22T13:55:50;9.68;;;3.75;;
78875;SDS011;68253;52.506;5.486;2023-06-22T13:58:17;9.98;;;4.00;;
78875;SDS011;68253;52.506;5.486;2023-06-22T14:00:45;9.10;;;3.83;;
78875;SDS011;68253;52.506;5.486;2023-06-22T14:03:11;9.48;;;4.07;;
78875;SDS011;68253;52.506;5.486;2023-06-22T14:05:41;9.55;;;3.97;;
78875;SDS011;68253;52.506;5.486;2023-06-22T14:08:08;9.07;;;4.07;;
78875;SDS011;68253;52.506;5.486;2023-06-22T14:10:34;10.00;;;3.83;;
78875;SDS011;68253;52.506;5.486;2023-06-22T14:13:01;8.75;;;3.45;;
78875;SDS011;68253;52.506;5.486;2023-06-22T14:15:27;8.43;;;3.55;;
78875;SDS011;68253;52.506;5.486;2023-06-22T14:17:53;9.30;;;4.13;;
78875;SDS011;68253;52.506;5.486;2023-06-22T14:20:19;9.77;;;4.00;;
78875;SDS011;68253;52.506;5.486;2023-06-22T14:22:45;8.95;;;3.78;;
78875;SDS011;68253;52.506;5.486;2023-06-22T14:25:11;9.73;;;4.57;;
78875;SDS011;68253;52.506;5.486;2023-06-22T14:27:37;9.85;;;4.13;;
78875;SDS011;68253;52.506;5.486;2023-06-22T14:30:04;9.20;;;4.38;;
78875;SDS011;68253;52.506;5.486;2023-06-22T14:32:30;9.70;;;4.45;;
78875;SDS011;68253;52.506;5.486;2023-06-22T14:34:56;10.32;;;4.40;;
78875;SDS011;68253;52.506;5.486;2023-06-22T14:37:23;9.85;;;4.70;;
78875;SDS011;68253;52.506;5.486;2023-06-22T14:39:49;9.07;;;4.60;;
78875;SDS011;68253;52.506;5.486;2023-06-22T14:42:15;10.75;;;4.90;;